Time;durP1;ratioP1;P1;durP2;ratioP2;P2;SDS_P1;SDS_P2;PMS_P1;PMS_P2;Temp;Humidity;BMP_temperature;BMP_pressure;BME280_temperature;BME280_humidity;BME280_pressure;Samples;Min_cycle;Max_cycle;Signal;HPM_P1;HPM_P2
2022/12/11 00:01:26;;;;;;;52.27;19.40;;;0.20;99.90;;;;;;5045422;28;20208;-83
2022/12/11 00:03:52;;;;;;;43.80;20.40;;;0.10;99.90;;;;;;5063050;28;20223;-85
2022/12/11 00:06:20;;;;;;;45.97;20.30;;;0.10;99.90;;;;;;5045325;28;20505;-84
2022/12/11 00:08:46;;;;;;;45.75;20.27;;;0.10;99.90;;;;;;5062256;28;20225;-83
2022/12/11 00:11:16;;;;;;;43.20;21.55;;;0.20;99.90;;;;;;5062380;28;20205;-85
2022/12/11 00:13:41;;;;;;;47.40;20.77;;;0.30;99.90;;;;;;5029430;28;20192;-84
2022/12/11 00:16:08;;;;;;;41.07;19.17;;;0.30;99.90;;;;;;5044858;28;20181;-85
2022/12/11 00:18:33;;;;;;;37.83;19.80;;;0.30;99.90;;;;;;5045559;28;20181;-85
2022/12/11 00:21:06;;;;;;;49.70;20.83;;;0.30;99.90;;;;;;5062113;28;20189;-84
2022/12/11 00:23:34;;;;;;;43.63;21.17;;;0.20;99.90;;;;;;5062848;28;20219;-85
2022/12/11 00:26:03;;;;;;;44.88;20.38;;;0.20;99.90;;;;;;5063410;28;20180;-85
2022/12/11 00:28:29;;;;;;;42.65;20.27;;;0.20;99.90;;;;;;5028124;28;20185;-85
2022/12/11 00:30:54;;;;;;;42.70;22.40;;;0.20;99.90;;;;;;5044622;28;20217;-85
2022/12/11 00:33:20;;;;;;;49.87;21.90;;;0.20;99.90;;;;;;5045320;28;20245;-85
2022/12/11 00:35:46;;;;;;;51.77;21.43;;;0.30;99.90;;;;;;5045025;28;20213;-85
2022/12/11 00:38:17;;;;;;;49.50;22.17;;;0.20;99.90;;;;;;5028819;28;20182;-84
2022/12/11 00:40:43;;;;;;;43.63;20.80;;;0.30;99.90;;;;;;5062457;28;20223;-85
2022/12/11 00:43:09;;;;;;;49.05;20.02;;;0.30;99.90;;;;;;5043945;28;20585;-85
2022/12/11 00:45:41;;;;;;;42.73;20.47;;;0.30;99.90;;;;;;5045700;28;20211;-84
2022/12/11 00:48:07;;;;;;;45.40;21.63;;;0.40;99.90;;;;;;5046246;28;20427;-85
2022/12/11 00:50:33;;;;;;;49.20;22.48;;;0.30;99.90;;;;;;5029170;28;20330;-85
2022/12/11 00:52:59;;;;;;;51.60;23.08;;;0.30;99.90;;;;;;5031076;28;20248;-85
2022/12/11 00:55:27;;;;;;;49.30;20.38;;;0.40;99.90;;;;;;5047163;28;20223;-84
2022/12/11 00:57:53;;;;;;;44.25;22.88;;;0.30;99.90;;;;;;5047735;28;20205;-85
2022/12/11 01:00:19;;;;;;;47.10;21.02;;;0.30;99.90;;;;;;5045513;28;20194;-85
2022/12/11 01:02:45;;;;;;;45.10;21.87;;;0.30;99.90;;;;;;5046445;28;20191;-84
2022/12/11 01:05:10;;;;;;;46.93;21.80;;;0.30;99.90;;;;;;5046892;28;20427;-84
2022/12/11 01:07:36;;;;;;;48.83;23.10;;;0.40;99.90;;;;;;5046112;28;20395;-84
2022/12/11 01:12:48;;;;;;;40.80;20.92;;;0.40;99.90;;;;;;5061375;28;20204;-84
2022/12/11 01:15:13;;;;;;;44.17;19.40;;;0.40;99.90;;;;;;5027327;28;20190;-84
2022/12/11 01:17:39;;;;;;;51.20;21.83;;;0.40;99.90;;;;;;5048599;28;20178;-84
2022/12/11 01:20:05;;;;;;;50.43;20.63;;;0.30;99.90;;;;;;5026356;28;20229;-84
2022/12/11 01:22:31;;;;;;;50.10;20.13;;;0.30;99.90;;;;;;5047084;28;20189;-84
2022/12/11 01:24:56;;;;;;;43.60;20.67;;;0.20;99.90;;;;;;5012832;28;20187;-85
2022/12/11 01:27:22;;;;;;;42.73;19.90;;;0.30;99.90;;;;;;5013451;28;20182;-85
2022/12/11 01:29:48;;;;;;;46.60;20.80;;;0.30;99.90;;;;;;5031631;28;20190;-85
2022/12/11 01:32:14;;;;;;;44.72;22.30;;;0.30;99.90;;;;;;5069626;28;20222;-84
2022/12/11 01:34:40;;;;;;;54.58;22.75;;;0.30;99.90;;;;;;5048929;28;20189;-82
2022/12/11 01:37:05;;;;;;;46.17;20.37;;;0.30;99.90;;;;;;5048509;28;20635;-85
2022/12/11 01:39:31;;;;;;;45.97;17.90;;;0.30;99.90;;;;;;5018161;28;20638;-84
2022/12/11 01:41:58;;;;;;;48.97;20.00;;;0.20;99.90;;;;;;5069912;28;20214;-84
2022/12/11 01:44:24;;;;;;;40.42;19.38;;;0.20;99.90;;;;;;5070030;28;20579;-84
2022/12/11 01:46:50;;;;;;;36.83;17.47;;;0.20;99.90;;;;;;5067893;28;20174;-85
2022/12/11 01:49:17;;;;;;;47.17;19.90;;;0.20;99.90;;;;;;5035746;28;20578;-85
2022/12/11 01:52:18;;;;;;;39.65;18.95;;;0.20;99.90;;;;;;5051331;28;20219;-85
2022/12/11 01:54:45;;;;;;;56.80;19.48;;;0.20;99.90;;;;;;5051244;28;20169;-84
2022/12/11 01:57:13;;;;;;;48.03;20.45;;;0.20;99.90;;;;;;5051318;28;20208;-84
2022/12/11 01:59:43;;;;;;;44.75;20.05;;;0.10;99.90;;;;;;5051628;28;20178;-84
2022/12/11 02:02:19;;;;;;;41.75;19.08;;;0.20;99.90;;;;;;5068534;28;20185;-84
2022/12/11 02:04:45;;;;;;;38.03;17.10;;;0.20;99.90;;;;;;5048259;28;20170;-85
2022/12/11 02:07:11;;;;;;;43.33;19.13;;;0.20;99.90;;;;;;5048701;28;20308;-84
2022/12/11 02:09:39;;;;;;;42.03;18.50;;;0.10;99.90;;;;;;5066268;28;20223;-85
2022/12/11 02:12:11;;;;;;;42.05;18.58;;;0.20;99.90;;;;;;5049177;28;20300;-84
2022/12/11 02:14:54;;;;;;;42.85;18.23;;;0.20;99.90;;;;;;5067298;28;20228;-85
2022/12/11 02:17:50;;;;;;;32.90;17.42;;;0.20;99.90;;;;;;5067850;28;20162;-84
2022/12/11 02:20:37;;;;;;;49.70;20.98;;;0.10;99.90;;;;;;5066795;28;20185;-84
2022/12/11 02:23:37;;;;;;;43.17;19.45;;;0.20;99.90;;;;;;5047770;28;20181;-84
2022/12/11 02:26:12;;;;;;;47.15;19.23;;;0.20;99.90;;;;;;5048938;28;20186;-84
2022/12/11 02:28:42;;;;;;;41.85;18.33;;;0.20;99.90;;;;;;5049919;28;20640;-84
2022/12/11 02:31:38;;;;;;;38.20;17.63;;;0.20;99.90;;;;;;5050094;28;20201;-83
2022/12/11 02:34:11;;;;;;;31.63;15.18;;;0.20;99.90;;;;;;5049015;28;20210;-84
2022/12/11 02:36:40;;;;;;;31.50;16.83;;;0.20;99.90;;;;;;5060539;28;20509;-84
2022/12/11 02:39:09;;;;;;;30.10;15.32;;;0.20;99.90;;;;;;5042258;28;20179;-84
2022/12/11 02:41:36;;;;;;;29.20;15.63;;;0.20;99.90;;;;;;5044616;28;20190;-84
2022/12/11 02:44:03;;;;;;;34.45;17.17;;;0.20;99.90;;;;;;5043884;28;20181;-84
2022/12/11 02:46:31;;;;;;;27.38;14.13;;;0.10;99.90;;;;;;5026975;28;20208;-84
2022/12/11 02:48:57;;;;;;;26.30;14.32;;;0.10;99.90;;;;;;5040749;28;20182;-84
2022/12/11 02:51:27;;;;;;;26.03;13.40;;;0.10;99.90;;;;;;5026433;28;20216;-84
2022/12/11 02:53:55;;;;;;;23.38;13.32;;;0.10;99.90;;;;;;5060095;28;20185;-84
2022/12/11 02:56:42;;;;;;;25.02;13.30;;;0.10;99.90;;;;;;5060285;28;20173;-83
2022/12/11 02:59:17;;;;;;;30.17;15.15;;;0.10;99.90;;;;;;5041225;28;20179;-84
2022/12/11 03:01:44;;;;;;;24.50;13.30;;;0.10;99.90;;;;;;5061039;28;20262;-85
2022/12/11 03:04:10;;;;;;;25.23;13.30;;;0.10;99.90;;;;;;5008359;28;20177;-85
2022/12/11 03:06:41;;;;;;;33.50;12.93;;;0.10;99.90;;;;;;5040941;28;20242;-84
2022/12/11 03:09:07;;;;;;;26.95;12.95;;;0.10;99.90;;;;;;5041311;28;20539;-84
2022/12/11 03:11:32;;;;;;;24.80;13.87;;;0.10;99.90;;;;;;5041811;28;20211;-85
2022/12/11 03:14:01;;;;;;;27.67;13.60;;;0.10;99.90;;;;;;5040258;28;20421;-84
2022/12/11 03:16:37;;;;;;;27.48;14.60;;;0.10;99.90;;;;;;5006924;28;20209;-85
2022/12/11 03:19:26;;;;;;;27.38;14.02;;;0.20;99.90;;;;;;5056552;28;20173;-85
2022/12/11 03:22:07;;;;;;;25.92;13.88;;;0.20;99.90;;;;;;5038927;28;20197;-85
2022/12/11 03:24:43;;;;;;;24.75;14.30;;;0.20;99.90;;;;;;5038836;28;20184;-85
2022/12/11 03:27:16;;;;;;;27.63;15.00;;;0.30;99.90;;;;;;5038650;28;20188;-85
2022/12/11 03:30:03;;;;;;;30.13;14.27;;;0.20;99.90;;;;;;5056899;28;20194;-85
2022/12/11 03:32:35;;;;;;;25.35;13.02;;;0.20;99.90;;;;;;5038782;28;20231;-85
2022/12/11 03:35:23;;;;;;;27.45;13.80;;;0.20;99.90;;;;;;5057191;28;20162;-85
2022/12/11 03:37:52;;;;;;;26.27;13.50;;;0.20;99.90;;;;;;5039298;28;20170;-85
2022/12/11 03:40:20;;;;;;;25.92;13.20;;;0.10;99.90;;;;;;5057758;28;20187;-85
2022/12/11 03:42:50;;;;;;;31.55;13.43;;;0.20;99.90;;;;;;5022783;28;20185;-85
2022/12/11 03:45:17;;;;;;;26.95;14.32;;;0.30;99.90;;;;;;5038693;28;20228;-85
2022/12/11 03:47:45;;;;;;;24.20;13.07;;;0.20;99.90;;;;;;5039325;28;20182;-84
2022/12/11 03:50:13;;;;;;;25.30;13.27;;;0.20;99.90;;;;;;5056174;28;20190;-85
2022/12/11 03:52:44;;;;;;;20.95;11.52;;;0.20;99.90;;;;;;5021817;28;20216;-85
2022/12/11 03:55:14;;;;;;;23.88;11.48;;;0.20;99.90;;;;;;5042254;28;20231;-84
2022/12/11 03:57:40;;;;;;;24.60;12.90;;;0.20;99.90;;;;;;5039667;28;20268;-85
2022/12/11 04:00:08;;;;;;;25.87;12.43;;;0.20;99.90;;;;;;5056999;28;20219;-85
2022/12/11 04:02:33;;;;;;;28.42;12.43;;;0.20;99.90;;;;;;5039491;28;20189;-85
2022/12/11 04:04:59;;;;;;;20.00;11.93;;;0.30;99.90;;;;;;5039108;28;20270;-85
2022/12/11 04:07:25;;;;;;;23.20;12.43;;;0.30;99.90;;;;;;5039815;28;20239;-85
2022/12/11 04:09:50;;;;;;;27.00;13.63;;;0.40;99.90;;;;;;5056946;28;20202;-85
2022/12/11 04:12:16;;;;;;;23.97;13.10;;;0.40;99.90;;;;;;5056610;28;20969;-85
2022/12/11 04:25:38;;;;;;;23.55;12.30;;;0.40;99.90;;;;;;5042321;28;20649;-85
2022/12/11 04:28:04;;;;;;;23.77;13.43;;;0.40;99.90;;;;;;5039311;28;20185;-85
2022/12/11 04:30:29;;;;;;;24.80;12.80;;;0.40;99.90;;;;;;5028380;28;20183;-85
2022/12/11 04:32:55;;;;;;;24.90;11.60;;;0.30;99.90;;;;;;5029193;28;20207;-85
2022/12/11 04:35:21;;;;;;;21.53;11.87;;;0.40;99.90;;;;;;5029235;28;20237;-85
2022/12/11 04:37:47;;;;;;;21.80;11.73;;;0.30;99.90;;;;;;5038995;28;20174;-85
2022/12/11 04:40:16;;;;;;;25.10;13.70;;;0.20;99.90;;;;;;5038152;28;20183;-85
2022/12/11 04:42:42;;;;;;;26.23;11.95;;;0.40;99.90;;;;;;5058049;28;20575;-85
2022/12/11 04:45:08;;;;;;;25.50;12.90;;;0.40;99.90;;;;;;5055948;28;20179;-85
2022/12/11 04:47:35;;;;;;;23.55;12.82;;;0.40;99.90;;;;;;5022086;28;20185;-85
2022/12/11 04:50:03;;;;;;;20.65;11.20;;;0.40;99.90;;;;;;5037744;28;20182;-85
2022/12/11 04:52:28;;;;;;;23.85;13.07;;;0.30;99.90;;;;;;5055377;28;20266;-85
2022/12/11 04:54:54;;;;;;;28.93;12.23;;;0.30;99.90;;;;;;5037946;28;20211;-85
2022/12/11 04:57:20;;;;;;;21.80;12.73;;;0.30;99.90;;;;;;5021549;28;20186;-85
2022/12/11 04:59:46;;;;;;;25.98;13.65;;;0.30;99.90;;;;;;5006178;28;20188;-85
2022/12/11 05:02:12;;;;;;;21.48;12.50;;;0.40;99.90;;;;;;5038288;28;20258;-85
2022/12/11 05:04:37;;;;;;;25.37;11.93;;;0.40;99.90;;;;;;5021041;28;20181;-85
2022/12/11 05:07:03;;;;;;;25.47;12.30;;;0.40;99.90;;;;;;5018590;28;20289;-85
2022/12/11 05:09:29;;;;;;;29.93;12.97;;;0.30;99.90;;;;;;5037323;28;20181;-85
2022/12/11 05:11:54;;;;;;;23.57;12.30;;;0.30;99.90;;;;;;5018618;28;20212;-85
2022/12/11 05:14:20;;;;;;;28.03;14.70;;;0.30;99.90;;;;;;5038336;28;20692;-85
2022/12/11 05:16:46;;;;;;;22.50;12.53;;;0.30;99.90;;;;;;5038987;28;20182;-85
2022/12/11 05:19:12;;;;;;;24.50;12.20;;;0.30;99.90;;;;;;5038105;28;20442;-85
2022/12/11 05:21:37;;;;;;;25.23;13.57;;;0.20;99.90;;;;;;5038361;28;20422;-85
2022/12/11 05:24:03;;;;;;;24.60;13.30;;;0.20;99.90;;;;;;5022348;28;20181;-85
2022/12/11 05:26:29;;;;;;;26.00;12.40;;;0.30;99.90;;;;;;5040705;28;20182;-85
2022/12/11 05:28:55;;;;;;;21.93;12.90;;;0.20;99.90;;;;;;5021812;28;20182;-85
2022/12/11 05:31:23;;;;;;;21.30;12.10;;;0.20;99.90;;;;;;5038847;28;20297;-85
2022/12/11 05:33:49;;;;;;;23.02;13.32;;;0.20;99.90;;;;;;5037889;28;20429;-85
2022/12/11 05:36:20;;;;;;;30.23;13.70;;;0.30;99.90;;;;;;5037612;28;20182;-85
2022/12/11 05:38:47;;;;;;;25.55;13.68;;;0.20;99.90;;;;;;5038480;28;20163;-85
2022/12/11 05:41:15;;;;;;;31.67;14.35;;;0.30;99.90;;;;;;5039328;28;20192;-84
2022/12/11 05:43:41;;;;;;;24.38;12.00;;;0.10;99.90;;;;;;5043881;28;20186;-84
2022/12/11 05:46:20;;;;;;;22.50;12.27;;;0.20;99.90;;;;;;5021090;28;20187;-84
2022/12/11 05:48:48;;;;;;;22.00;11.88;;;0.20;99.90;;;;;;5037091;28;20429;-85
2022/12/11 05:51:14;;;;;;;25.42;13.13;;;0.20;99.90;;;;;;5037957;28;20207;-86
2022/12/11 05:53:41;;;;;;;23.08;12.50;;;0.30;99.90;;;;;;5038709;28;20194;-85
2022/12/11 05:56:11;;;;;;;22.88;12.55;;;0.20;99.90;;;;;;5036963;28;20649;-84
2022/12/11 05:58:37;;;;;;;23.08;11.52;;;0.30;99.90;;;;;;5037509;28;20201;-85
2022/12/11 06:01:08;;;;;;;28.00;13.75;;;0.20;99.90;;;;;;5020754;28;20196;-85
2022/12/11 06:03:33;;;;;;;25.15;12.80;;;0.20;99.90;;;;;;5037024;28;20539;-85
2022/12/11 06:06:03;;;;;;;25.70;12.63;;;0.20;99.90;;;;;;5037380;28;20178;-85
2022/12/11 06:08:29;;;;;;;25.45;12.35;;;0.20;99.90;;;;;;5053339;28;20234;-85
2022/12/11 06:10:55;;;;;;;21.00;12.60;;;0.30;99.90;;;;;;5059183;28;20269;-85
2022/12/11 06:13:20;;;;;;;27.03;13.07;;;0.30;99.90;;;;;;5059072;28;20670;-85
2022/12/11 06:15:46;;;;;;;24.80;12.60;;;0.30;99.90;;;;;;5041026;28;20193;-85
2022/12/11 06:18:11;;;;;;;21.73;12.20;;;0.30;99.90;;;;;;5058309;28;20185;-85
2022/12/11 06:20:37;;;;;;;26.10;14.17;;;0.40;99.90;;;;;;5040297;28;20568;-85
2022/12/11 06:23:03;;;;;;;22.30;12.10;;;0.50;99.90;;;;;;5039843;28;20626;-85
2022/12/11 06:25:29;;;;;;;24.07;12.03;;;0.40;99.90;;;;;;5024214;28;20460;-85
2022/12/11 06:27:55;;;;;;;22.20;11.52;;;0.40;99.90;;;;;;5057993;28;20171;-85
2022/12/11 06:30:21;;;;;;;21.90;13.03;;;0.40;99.90;;;;;;5040279;28;20269;-85
2022/12/11 06:32:47;;;;;;;22.02;11.68;;;0.40;99.90;;;;;;5039552;28;20461;-85
2022/12/11 06:35:12;;;;;;;26.13;13.13;;;0.50;99.90;;;;;;5057096;28;20531;-85
2022/12/11 06:37:39;;;;;;;24.23;12.00;;;0.40;99.90;;;;;;5023378;28;20211;-85
2022/12/11 06:40:06;;;;;;;23.00;12.80;;;0.40;99.90;;;;;;5023678;28;20717;-85
2022/12/11 06:42:32;;;;;;;20.85;11.38;;;0.40;99.90;;;;;;5058242;28;20220;-85
2022/12/11 06:44:58;;;;;;;20.30;11.50;;;0.40;99.90;;;;;;5039840;28;20202;-85
2022/12/11 06:47:28;;;;;;;26.00;12.43;;;0.30;99.90;;;;;;5023645;28;20237;-85
2022/12/11 06:49:55;;;;;;;23.27;13.43;;;0.40;99.90;;;;;;5038955;28;20214;-85
2022/12/11 06:52:21;;;;;;;25.00;13.85;;;0.40;99.90;;;;;;5057260;28;20200;-85
2022/12/11 06:54:47;;;;;;;24.80;12.57;;;0.40;99.90;;;;;;5057030;28;20182;-84
2022/12/11 06:57:13;;;;;;;26.97;12.77;;;0.30;99.90;;;;;;5022654;28;20188;-85
2022/12/11 06:59:38;;;;;;;26.93;14.17;;;0.30;99.90;;;;;;5023025;28;20182;-85
2022/12/11 07:02:04;;;;;;;24.37;12.77;;;0.30;99.90;;;;;;5023343;28;20272;-85
2022/12/11 07:04:30;;;;;;;23.17;12.13;;;0.30;99.90;;;;;;5039290;28;20178;-85
2022/12/11 07:06:56;;;;;;;29.08;13.38;;;0.40;99.90;;;;;;5022450;28;20229;-85
2022/12/11 07:09:22;;;;;;;21.77;12.73;;;0.40;99.90;;;;;;5006228;28;20180;-85
2022/12/11 07:11:49;;;;;;;24.63;13.20;;;0.40;99.90;;;;;;5057126;28;20463;-85
2022/12/11 07:14:15;;;;;;;31.52;14.23;;;0.50;99.90;;;;;;5056112;28;20223;-85
2022/12/11 07:16:41;;;;;;;21.60;12.87;;;0.40;99.90;;;;;;5038885;28;20183;-85
2022/12/11 07:19:06;;;;;;;23.97;12.90;;;0.40;99.90;;;;;;5056667;28;20184;-85
2022/12/11 07:21:32;;;;;;;25.13;13.67;;;0.40;99.90;;;;;;5056435;28;20191;-85
2022/12/11 07:23:58;;;;;;;22.73;13.00;;;0.40;99.90;;;;;;5056589;28;20229;-85
2022/12/11 07:26:23;;;;;;;22.03;11.63;;;0.40;99.90;;;;;;5005513;28;20181;-85
2022/12/11 07:28:49;;;;;;;25.43;12.17;;;0.40;99.90;;;;;;5021969;28;20182;-85
2022/12/11 07:31:21;;;;;;;24.13;13.00;;;0.40;99.90;;;;;;5021853;28;20225;-85
2022/12/11 07:33:51;;;;;;;21.15;12.30;;;0.40;99.90;;;;;;5056250;28;20180;-85
2022/12/11 07:36:17;;;;;;;33.95;18.52;;;0.50;99.90;;;;;;5056857;28;20635;-85
2022/12/11 07:38:42;;;;;;;31.53;17.67;;;0.50;99.90;;;;;;5038806;28;20183;-85
2022/12/11 07:41:11;;;;;;;29.50;14.23;;;0.50;99.90;;;;;;5038360;28;20251;-85
2022/12/11 07:43:36;;;;;;;27.05;13.52;;;0.50;99.90;;;;;;5055871;28;20178;-85
2022/12/11 07:46:17;;;;;;;26.23;15.87;;;0.40;99.90;;;;;;5021554;28;20222;-85
2022/12/11 07:48:44;;;;;;;28.65;13.23;;;0.50;99.90;;;;;;5056513;28;20223;-85
2022/12/11 07:51:17;;;;;;;26.45;13.57;;;0.50;99.90;;;;;;5056310;28;20724;-84
2022/12/11 07:53:44;;;;;;;28.35;14.02;;;0.40;99.90;;;;;;5055745;28;20223;-85
2022/12/11 07:56:10;;;;;;;32.22;16.35;;;0.50;99.90;;;;;;5055207;28;20532;-85
2022/12/11 07:58:37;;;;;;;31.17;17.90;;;0.50;99.90;;;;;;5037954;28;20201;-85
2022/12/11 08:01:04;;;;;;;30.92;15.60;;;0.40;99.90;;;;;;5038411;28;20412;-85
2022/12/11 08:03:29;;;;;;;23.95;14.55;;;0.40;99.90;;;;;;5037637;28;20189;-85
2022/12/11 08:05:55;;;;;;;30.23;15.00;;;0.40;99.90;;;;;;5037688;28;20656;-84
2022/12/11 08:08:20;;;;;;;29.70;16.10;;;0.50;99.90;;;;;;5001241;28;20255;-84
2022/12/11 08:10:46;;;;;;;27.53;15.60;;;0.50;99.90;;;;;;5018395;28;20278;-85
2022/12/11 08:13:12;;;;;;;28.07;15.10;;;0.50;99.90;;;;;;5034506;28;20216;-85
2022/12/11 08:15:37;;;;;;;29.83;14.20;;;0.60;99.90;;;;;;5018029;28;20181;-85
2022/12/11 08:18:03;;;;;;;28.37;13.70;;;0.60;99.90;;;;;;5017970;28;20195;-84
2022/12/11 08:20:29;;;;;;;31.47;15.83;;;0.60;99.90;;;;;;5035300;28;20182;-85
2022/12/11 08:22:55;;;;;;;29.55;16.00;;;0.50;99.90;;;;;;5034514;28;20425;-83
2022/12/11 08:25:21;;;;;;;27.77;14.93;;;0.50;99.90;;;;;;5034301;28;20581;-84
2022/12/11 08:27:47;;;;;;;27.90;14.70;;;0.60;99.90;;;;;;5035427;28;20413;-84
2022/12/11 08:30:12;;;;;;;27.70;14.20;;;0.60;99.90;;;;;;5017892;28;20489;-84
2022/12/11 08:32:38;;;;;;;26.23;15.77;;;0.70;99.90;;;;;;5033861;28;20214;-84
2022/12/11 08:35:04;;;;;;;24.47;13.27;;;0.60;99.90;;;;;;5034098;28;20638;-84
2022/12/11 08:37:30;;;;;;;23.48;12.93;;;0.60;99.90;;;;;;5017161;28;20193;-84
2022/12/11 08:39:56;;;;;;;26.67;14.30;;;0.70;99.90;;;;;;5034081;28;20629;-84
2022/12/11 08:42:21;;;;;;;26.97;14.73;;;0.60;99.90;;;;;;5001280;28;20451;-84
2022/12/11 08:44:47;;;;;;;30.87;16.30;;;0.60;99.90;;;;;;5034404;28;20468;-84
2022/12/11 08:47:14;;;;;;;26.33;14.30;;;0.70;99.90;;;;;;5034536;28;20176;-84
2022/12/11 08:49:39;;;;;;;24.63;16.73;;;0.70;99.90;;;;;;5018460;28;20659;-84
2022/12/11 08:52:05;;;;;;;24.70;13.63;;;0.70;99.90;;;;;;5039874;28;20207;-84
2022/12/11 08:54:31;;;;;;;26.00;14.20;;;0.70;99.90;;;;;;5038513;28;20190;-84
2022/12/11 08:56:57;;;;;;;28.83;15.65;;;0.70;99.90;;;;;;5024481;28;20184;-83
2022/12/11 08:59:24;;;;;;;26.87;14.00;;;0.80;99.90;;;;;;5023351;28;20185;-84
2022/12/11 09:01:50;;;;;;;25.50;14.77;;;0.90;99.90;;;;;;5040972;28;20180;-84
2022/12/11 09:04:15;;;;;;;26.83;13.43;;;0.80;99.90;;;;;;5039935;28;20183;-84
2022/12/11 09:06:41;;;;;;;27.57;14.27;;;0.80;99.90;;;;;;5024583;28;20178;-84
2022/12/11 09:09:07;;;;;;;27.40;15.03;;;0.70;99.90;;;;;;5026878;28;20190;-84
2022/12/11 09:11:35;;;;;;;26.40;14.53;;;0.70;99.90;;;;;;5027452;28;20219;-84
2022/12/11 09:14:01;;;;;;;29.35;14.80;;;0.70;99.90;;;;;;5061688;28;20218;-84
2022/12/11 09:16:27;;;;;;;30.33;13.70;;;0.80;99.90;;;;;;5043816;28;20512;-84
2022/12/11 09:18:55;;;;;;;27.25;13.20;;;0.70;99.90;;;;;;5060621;28;20200;-84
2022/12/11 09:21:24;;;;;;;27.95;15.02;;;0.80;99.90;;;;;;5043089;28;20201;-84
2022/12/11 09:23:55;;;;;;;27.42;14.13;;;0.90;99.90;;;;;;5060193;28;20180;-84
2022/12/11 09:26:22;;;;;;;31.67;16.65;;;0.90;99.90;;;;;;5031219;28;20547;-85
2022/12/11 09:28:50;;;;;;;28.58;15.02;;;0.80;99.90;;;;;;5055869;28;20568;-84
2022/12/11 09:31:27;;;;;;;30.50;15.13;;;0.80;99.90;;;;;;5041927;28;20223;-84
2022/12/11 09:33:58;;;;;;;30.48;15.02;;;0.80;99.90;;;;;;5046463;28;20181;-84
2022/12/11 09:36:24;;;;;;;27.70;15.30;;;0.70;99.90;;;;;;5026676;28;20176;-84
2022/12/11 09:38:50;;;;;;;28.40;15.40;;;0.80;99.90;;;;;;5039981;28;20179;-81
2022/12/11 09:41:31;;;;;;;35.60;18.85;;;1.00;99.90;;;;;;5020521;28;20184;-82
2022/12/11 09:44:38;;;;;;;33.00;16.98;;;0.90;99.90;;;;;;5018115;28;20184;-83
2022/12/11 09:47:34;;;;;;;33.28;16.45;;;1.00;99.90;;;;;;5034735;28;20169;-82
2022/12/11 09:50:18;;;;;;;30.15;15.13;;;1.10;99.90;;;;;;5015760;28;20587;-82
2022/12/11 09:52:46;;;;;;;30.55;16.85;;;1.10;99.90;;;;;;5014909;28;20209;-81
2022/12/11 09:55:19;;;;;;;27.73;13.88;;;1.00;99.90;;;;;;5034098;28;20189;-83
2022/12/11 09:58:04;;;;;;;27.63;15.88;;;1.10;99.90;;;;;;5035179;28;20178;-82
2022/12/11 10:00:38;;;;;;;33.22;16.67;;;1.10;99.90;;;;;;5022746;28;20174;-82
2022/12/11 10:03:05;;;;;;;33.63;15.30;;;1.00;99.90;;;;;;5023094;28;20182;-83
2022/12/11 10:05:51;;;;;;;29.52;15.60;;;1.10;99.90;;;;;;5023416;28;20181;-83
2022/12/11 10:08:26;;;;;;;30.27;14.80;;;1.20;99.90;;;;;;5023578;28;20233;-82
2022/12/11 10:10:58;;;;;;;33.15;16.50;;;1.30;99.90;;;;;;5024923;28;20614;-83
2022/12/11 10:13:33;;;;;;;35.95;16.85;;;1.40;99.90;;;;;;5059697;28;20794;-83
2022/12/11 10:16:02;;;;;;;30.65;15.48;;;1.40;99.90;;;;;;5042649;28;20196;-83
2022/12/11 10:18:29;;;;;;;31.80;16.63;;;1.50;99.90;;;;;;5060754;28;20232;-82
2022/12/11 10:20:55;;;;;;;34.83;16.55;;;1.60;99.90;;;;;;5046281;28;20188;-85
2022/12/11 10:23:34;;;;;;;39.88;17.15;;;1.70;99.90;;;;;;5064053;28;20192;-86
2022/12/11 10:26:26;;;;;;;36.80;17.65;;;1.70;99.90;;;;;;5064838;28;20237;-86
2022/12/11 10:28:52;;;;;;;40.55;19.13;;;1.80;99.90;;;;;;5029332;28;20196;-86
2022/12/11 10:31:40;;;;;;;48.93;20.73;;;1.90;99.90;;;;;;5047026;28;20266;-87
2022/12/11 10:34:20;;;;;;;34.92;16.58;;;1.90;99.90;;;;;;5069113;28;20189;-85
2022/12/11 10:36:46;;;;;;;37.63;18.52;;;1.90;99.90;;;;;;5051213;28;20187;-84
2022/12/11 10:39:17;;;;;;;38.50;17.03;;;1.60;99.90;;;;;;5050433;28;20189;-84
2022/12/11 10:41:48;;;;;;;43.08;18.83;;;1.60;99.90;;;;;;5068185;28;20172;-83
2022/12/11 10:44:16;;;;;;;44.58;20.00;;;1.60;99.90;;;;;;5054502;28;20187;-85
2022/12/11 10:46:42;;;;;;;36.90;17.10;;;1.60;99.90;;;;;;5065393;28;20236;-85
2022/12/11 10:49:21;;;;;;;31.25;17.95;;;1.60;99.90;;;;;;5064560;28;20193;-85
2022/12/11 10:51:46;;;;;;;41.78;16.85;;;1.70;99.90;;;;;;5046564;28;20345;-86
2022/12/11 10:54:37;;;;;;;45.83;19.40;;;1.70;99.90;;;;;;5030693;28;20223;-86
2022/12/11 10:57:05;;;;;;;27.17;14.73;;;1.80;99.90;;;;;;5056759;28;20632;-85
2022/12/11 10:59:40;;;;;;;36.25;16.38;;;1.80;99.90;;;;;;5043306;28;20182;-86
2022/12/11 11:02:16;;;;;;;31.23;16.75;;;1.70;99.90;;;;;;5047650;28;20593;-86
2022/12/11 11:04:43;;;;;;;29.45;15.68;;;1.80;99.90;;;;;;5028308;28;20189;-85
2022/12/11 11:07:26;;;;;;;34.38;17.40;;;1.80;99.90;;;;;;5054831;28;20220;-87
2022/12/11 11:10:09;;;;;;;30.65;16.00;;;1.90;99.90;;;;;;5041835;28;20170;-85
2022/12/11 11:12:48;;;;;;;29.92;15.15;;;1.90;99.90;;;;;;5024375;28;20215;-84
2022/12/11 11:15:18;;;;;;;28.50;14.52;;;2.00;99.90;;;;;;5040905;28;20178;-83
2022/12/11 11:17:50;;;;;;;33.33;15.70;;;2.00;99.90;;;;;;5039867;28;20200;-83
2022/12/11 11:20:19;;;;;;;26.98;14.00;;;2.10;99.90;;;;;;5023095;28;20193;-84
2022/12/11 11:22:58;;;;;;;28.92;14.85;;;2.10;99.90;;;;;;5022217;28;20194;-83
2022/12/11 11:25:26;;;;;;;33.15;15.88;;;2.10;99.90;;;;;;5041563;28;20252;-84
2022/12/11 11:27:57;;;;;;;31.95;16.27;;;2.00;99.90;;;;;;5040895;28;20181;-83
2022/12/11 11:30:55;;;;;;;32.70;15.32;;;2.00;99.90;;;;;;5023572;28;20180;-83
2022/12/11 11:33:22;;;;;;;33.28;16.88;;;1.90;99.90;;;;;;5042263;28;20176;-83
2022/12/11 11:35:53;;;;;;;32.25;16.33;;;2.10;99.90;;;;;;5041110;28;20723;-82
2022/12/11 11:38:21;;;;;;;33.25;16.55;;;2.10;99.90;;;;;;5022901;28;20177;-82
2022/12/11 11:40:59;;;;;;;36.60;18.65;;;2.10;99.90;;;;;;5040728;28;20222;-83
2022/12/11 11:43:31;;;;;;;26.20;14.02;;;2.00;99.90;;;;;;5021725;28;20198;-83
2022/12/11 11:46:00;;;;;;;32.40;16.73;;;2.10;99.90;;;;;;5040479;28;20173;-82
2022/12/11 11:48:39;;;;;;;34.10;17.33;;;2.20;99.90;;;;;;5022340;28;20526;-83
2022/12/11 11:51:14;;;;;;;38.15;17.35;;;2.20;99.90;;;;;;5039106;28;20170;-82
2022/12/11 11:53:41;;;;;;;30.05;15.05;;;2.30;99.90;;;;;;5039963;28;20166;-83
2022/12/11 11:56:20;;;;;;;29.42;15.98;;;2.30;99.90;;;;;;5023123;28;20185;-83
2022/12/11 11:59:18;;;;;;;33.70;18.58;;;2.40;99.90;;;;;;5037602;28;20569;-83
2022/12/11 12:01:43;;;;;;;32.38;16.70;;;2.50;99.90;;;;;;5020458;28;20231;-83
2022/12/11 12:04:10;;;;;;;35.23;17.40;;;2.60;99.90;;;;;;5022543;28;20556;-84
2022/12/11 12:07:02;;;;;;;41.35;18.10;;;2.70;99.90;;;;;;5021875;28;20184;-83
2022/12/11 12:09:31;;;;;;;41.55;18.17;;;2.70;99.90;;;;;;5039996;28;20162;-82
2022/12/11 12:12:28;;;;;;;38.78;17.40;;;2.80;99.90;;;;;;5038256;28;20618;-83
2022/12/11 12:15:06;;;;;;;35.47;16.83;;;2.80;99.90;;;;;;5015722;28;20187;-83
2022/12/11 12:17:49;;;;;;;34.22;17.40;;;2.90;99.90;;;;;;5021601;28;20207;-83
2022/12/11 12:20:39;;;;;;;37.58;18.20;;;3.00;99.90;;;;;;5022177;28;20185;-82
2022/12/11 12:23:35;;;;;;;33.10;17.58;;;3.00;99.90;;;;;;5026467;28;20179;-83
2022/12/11 12:26:28;;;;;;;44.63;19.35;;;2.90;99.90;;;;;;5058664;28;20518;-83
2022/12/11 12:29:20;;;;;;;36.45;19.55;;;2.90;99.90;;;;;;5041386;28;20173;-83
2022/12/11 12:31:55;;;;;;;37.28;18.73;;;3.00;99.90;;;;;;5040111;28;20248;-83
2022/12/11 12:34:53;;;;;;;40.67;18.60;;;3.10;99.90;;;;;;5041074;28;20177;-83
2022/12/11 12:37:37;;;;;;;32.72;16.27;;;3.00;99.90;;;;;;5040324;28;20177;-82
2022/12/11 12:40:22;;;;;;;39.40;19.00;;;3.00;99.90;;;;;;5040242;28;20188;-82
2022/12/11 12:43:02;;;;;;;35.90;18.95;;;3.00;99.90;;;;;;5058172;28;20173;-83
2022/12/11 12:45:33;;;;;;;31.33;16.23;;;3.00;99.90;;;;;;5040961;28;20173;-83
2022/12/11 12:47:59;;;;;;;49.25;19.90;;;3.10;99.90;;;;;;5040384;28;20694;-81
2022/12/11 12:50:31;;;;;;;38.08;19.52;;;3.00;99.90;;;;;;5023457;28;20182;-82
2022/12/11 12:52:58;;;;;;;40.33;20.10;;;3.00;99.90;;;;;;5057685;28;20220;-82
2022/12/11 12:55:30;;;;;;;40.35;20.48;;;3.20;99.90;;;;;;5056257;28;20200;-84
2022/12/11 12:58:06;;;;;;;39.28;19.30;;;3.10;99.90;;;;;;5038156;28;20665;-84
2022/12/11 13:00:41;;;;;;;41.92;20.60;;;3.20;99.90;;;;;;5033256;28;20263;-84
2022/12/11 13:03:22;;;;;;;41.03;20.45;;;3.20;99.90;;;;;;5056796;28;20164;-84
2022/12/11 13:05:55;;;;;;;45.22;21.30;;;3.20;99.90;;;;;;5038394;28;20173;-83